메인 페이지
METAR-TAF:

METAR-TAF

공항 :

Hutchinson, 캔자스, 미국

위도: 38-04-05N, 경도: 097-51-38W, 고도: 470m

현재 날씨관측

예보는 27분 전, 05:12시(UTC)에 발표되었습니다.
5kt
온도 20°C
습도 94%
기압 1013 hPa
시정: 16.1km
고도 11000ft 상공 구름 많음
뇌우, 약한비

METAR: KHUT 250512Z AUTO 09005KT 10SM -TSRA BKN110 20/19 A2991 RMK AO2 LTG DSNT ALQDS RAB0458 TSB06 P0001 T02000189

시각: 00:39 (05:39 UTC)

예보

예보는 5 시간 59분 전, 23:40시(UTC)에 발표되었습니다.
예보 대상 시간: 25일 00시부터 25일 24시까지 (UTC)
여러 방향의 바람 3kt
시정: 10km
고도 25000ft 상공 흐림
25일 0500시부터 (UTC)
여러 방향의 바람 3kt
시정: 10km
고도 7000ft 상공 구름 많음
고도 15000ft 상공 흐림
25일 0900시부터 (UTC)
여러 방향의 바람 3kt
시정: 10km
고도 2500ft 상공 구름 보통
고도 5000ft 상공 흐림
시계 내 소나기
일시적
25일 09시부터 25일 13시까지 (UTC)
여러 방향의 바람 25kt, 순간 최대 풍속 35kt
시정: 3.2km
고도 1300ft 상공 흐림, 적란운.
뇌우, 강한비
25일 1300시부터 (UTC)
여러 방향의 바람 4kt
시정: 4.8km
고도 800ft 상공 흐림, 적란운.
뇌우, 비
25일 1600시부터 (UTC)
여러 방향의 바람 3kt
시정: 10km
고도 1300ft 상공 구름 많음

TAF: KHUT 242340Z 2500/2524 VRB03KT P6SM OVC250 FM250500 VRB03KT P6SM BKN070 OVC150 FM250900 VRB03KT P6SM VCSH SCT025 OVC050 TEMPO 2509/2513 VRB25G35KT 2SM +TSRA OVC013CB FM251300 VRB04KT 3SM TSRA OVC008CB FM251600 VRB03KT P6SM BKN013

4,000개 이상의 공항 관측 자료 및 예보 (METAR 및 TAF 보고).

지도상에서 검색 가능한 기상관측소가 노란 점과 빨간 점으로 표시되어 있습니다.

기상관측소 명을 보려면 표시 위로 마우스를 이동하세요.

날씨 관측과 예보를 보려면 클릭하세요.

지도 변경 : 확대하려면 엑스 표시가 있는 녹색 버튼, 축소하려면 빼기 표시가 있는 녹색 버튼, 다음 페이지의 지도를 보려면 녹색 화살표를 클릭하세요.


METAR-TAF: